4M9 weather

Corning Municipal Airport
Corning, Arkansas, United States

Public forecast

Using degrees Fahrenheit for public forecast. Weather courtesy of forecast.io.

Current aviation weather report (METAR) for Corning Municipal Airport

Retrieved 2020/05/27 06:15 UTC (23 minutes ago):

K4M9 270615Z AUTO 16007KT 10SM BKN007 OVC013 21/21 A2988 RMK AO2 PWINO

Closest aviation forecast (TAF) to Corning Municipal Airport

Closest forecast is Jonesboro Municipal Airport, 34.4 nm (63.7 km) S. Retrieved 2020/05/27 06:30 UTC (8 minutes ago):

TAF KJBR 270528Z 2706/2806 14005KT 6SM -SHRA BR OVC015 FM271000 14005KT P6SM VCSH SCT010 OVC020 FM271800 18009KT 6SM -SHRA BR VCTS SCT025CB OVC080 FM280000 15005KT P6SM FEW030 BKN100 AMD NOT SKED